createdAt,value
2018-07-23T00:00:19.775Z,14.55
2018-07-23T00:05:23.052Z,14.90
2018-07-23T00:10:26.993Z,14.07
2018-07-23T00:15:33.644Z,14.70
2018-07-23T00:20:37.915Z,13.90
2018-07-23T00:25:41.381Z,13.50
2018-07-23T00:30:44.724Z,14.13
2018-07-23T00:35:48.159Z,15.48
2018-07-23T00:40:53.457Z,14.87
2018-07-23T00:45:56.731Z,14.63
2018-07-23T00:51:00.631Z,15.32
2018-07-23T00:56:03.860Z,16.15
2018-07-23T01:01:07.144Z,18.48
2018-07-23T01:06:12.461Z,16.65
2018-07-23T01:11:15.699Z,17.03
2018-07-23T01:16:19.007Z,16.10
2018-07-23T01:21:22.450Z,16.90
2018-07-23T01:26:25.722Z,17.10
2018-07-23T01:31:28.993Z,16.60
2018-07-23T01:36:32.296Z,16.40
2018-07-23T01:41:35.576Z,17.70
2018-07-23T01:46:38.838Z,17.90
2018-07-23T01:51:42.068Z,16.20
2018-07-23T01:56:45.457Z,15.03
2018-07-23T02:01:48.830Z,16.27
2018-07-23T02:06:52.117Z,13.93
2018-07-23T02:11:55.350Z,15.80
2018-07-23T02:16:58.663Z,15.30
2018-07-23T02:22:02.007Z,16.57
2018-07-23T02:27:05.473Z,15.85
2018-07-23T02:32:08.748Z,16.23
2018-07-23T02:37:12.387Z,16.83
2018-07-23T02:42:15.448Z,17.48
2018-07-23T02:47:18.742Z,18.30
2018-07-23T02:52:22.775Z,18.75
2018-07-23T02:57:26.005Z,18.05
2018-07-23T03:02:29.381Z,21.33
2018-07-23T03:07:32.693Z,18.53
2018-07-23T03:12:37.255Z,20.90
2018-07-23T03:17:40.480Z,20.75
2018-07-23T03:22:44.443Z,20.67
2018-07-23T03:27:47.736Z,20.40
2018-07-23T03:32:50.968Z,20.02
2018-07-23T03:37:55.046Z,18.67
2018-07-23T03:42:58.275Z,19.65
2018-07-23T03:48:01.574Z,18.90
2018-07-23T03:53:04.961Z,18.82
2018-07-23T03:58:08.242Z,18.30
2018-07-23T04:03:11.481Z,19.33
2018-07-23T04:08:14.743Z,18.75
2018-07-23T04:13:17.970Z,17.48
2018-07-23T04:18:21.263Z,18.20
2018-07-23T04:23:24.581Z,19.37
2018-07-23T04:28:27.891Z,18.95
2018-07-23T04:33:31.191Z,19.65
2018-07-23T04:38:34.409Z,21.62
2018-07-23T04:43:37.648Z,20.00
2018-07-23T04:48:41.458Z,20.45
2018-07-23T04:53:44.734Z,18.10
2018-07-23T04:58:48.045Z,18.10
2018-07-23T05:03:51.244Z,18.65
2018-07-23T05:08:54.494Z,19.77
2018-07-23T05:13:57.749Z,19.82
2018-07-23T05:19:01.056Z,19.93
2018-07-23T05:24:04.434Z,18.57
2018-07-23T05:29:07.879Z,21.12
2018-07-23T05:34:11.189Z,19.13
2018-07-23T05:39:14.453Z,18.95
2018-07-23T05:44:17.743Z,19.35
2018-07-23T05:49:21.017Z,18.80
2018-07-23T05:54:24.289Z,19.57
2018-07-23T05:59:27.521Z,20.08
2018-07-23T06:04:30.762Z,19.43
2018-07-23T06:09:33.986Z,20.20
2018-07-23T06:14:37.335Z,21.70
2018-07-23T06:19:41.185Z,21.62
2018-07-23T06:24:44.622Z,22.40
2018-07-23T06:29:47.906Z,22.37
2018-07-23T06:34:51.149Z,21.50
2018-07-23T06:39:54.453Z,20.52
2018-07-23T06:44:57.722Z,19.45
2018-07-23T06:50:01.043Z,19.92
2018-07-23T06:55:05.405Z,21.68
2018-07-23T07:00:11.049Z,20.27
2018-07-23T07:05:14.391Z,23.85
2018-07-23T07:10:18.294Z,22.25
2018-07-23T07:15:25.581Z,24.40
2018-07-23T07:20:28.844Z,22.73
2018-07-23T07:25:32.515Z,21.70
2018-07-23T07:30:35.760Z,22.27
2018-07-23T07:35:39.156Z,17.40
2018-07-23T07:40:42.414Z,15.87
2018-07-23T07:45:45.815Z,14.93
2018-07-23T07:50:49.133Z,12.70
2018-07-23T07:55:52.421Z,13.85
2018-07-23T08:00:55.743Z,15.83
2018-07-23T08:05:58.995Z,12.58
2018-07-23T08:11:02.481Z,12.80
2018-07-23T08:16:05.894Z,13.03
2018-07-23T08:21:09.722Z,12.15
2018-07-23T08:26:13.262Z,11.83
2018-07-23T08:31:16.547Z,10.80
2018-07-23T08:36:19.865Z,11.33
2018-07-23T08:41:23.145Z,11.28
2018-07-23T08:46:26.376Z,9.20
2018-07-23T08:51:29.784Z,9.80
2018-07-23T08:56:34.778Z,9.20
2018-07-23T09:01:38.640Z,7.50
2018-07-23T09:06:42.468Z,7.80
2018-07-23T09:17:18.894Z,7.20
2018-07-23T09:28:05.563Z,8.50
2018-07-23T09:33:11.855Z,7.60
2018-07-23T09:43:50.935Z,7.57
2018-07-23T09:48:55.852Z,8.00
2018-07-23T09:53:59.147Z,7.72
2018-07-23T09:59:02.451Z,7.62
2018-07-23T10:04:05.979Z,7.57
2018-07-23T10:09:10.991Z,6.90
2018-07-23T10:14:14.355Z,6.67
2018-07-23T10:19:17.640Z,6.80
2018-07-23T10:24:20.931Z,6.67
2018-07-23T10:29:24.302Z,7.42
2018-07-23T10:34:27.507Z,7.30
2018-07-23T10:39:30.743Z,7.90
2018-07-23T10:49:36.084Z,7.30
2018-07-23T10:54:39.399Z,6.90
2018-07-23T10:59:43.813Z,6.80
2018-07-23T11:04:47.109Z,6.42
2018-07-23T11:09:50.352Z,6.50
2018-07-23T11:14:53.704Z,6.47
2018-07-23T11:19:56.996Z,7.10
2018-07-23T11:25:37.950Z,6.30
2018-07-23T11:30:05.174Z,7.58
2018-07-23T11:35:08.769Z,6.90
2018-07-23T11:40:11.961Z,7.08
2018-07-23T11:45:15.273Z,6.80
2018-07-23T11:50:18.530Z,8.20
2018-07-23T11:55:21.834Z,7.20
2018-07-23T12:00:25.103Z,6.97
2018-07-23T12:05:28.500Z,7.00
2018-07-23T12:10:35.402Z,8.43
2018-07-23T12:15:38.691Z,7.40
2018-07-23T12:20:41.990Z,7.92
2018-07-23T12:25:46.008Z,6.90
2018-07-23T12:30:49.245Z,12.17
2018-07-23T12:35:52.553Z,8.13
2018-07-23T12:40:55.902Z,8.15
2018-07-23T12:45:59.179Z,7.20
2018-07-23T12:51:02.517Z,6.85
2018-07-23T12:56:05.810Z,8.08
2018-07-23T13:01:09.488Z,7.10
2018-07-23T13:06:12.731Z,6.80
2018-07-23T13:11:16.002Z,6.80
2018-07-23T13:16:19.284Z,7.28
2018-07-23T13:21:24.691Z,7.30
2018-07-23T13:26:27.931Z,6.55
2018-07-23T13:31:31.289Z,6.83
2018-07-23T13:36:34.646Z,7.30
2018-07-23T13:41:37.970Z,8.03
2018-07-23T13:46:41.318Z,7.20
2018-07-23T13:51:44.790Z,6.92
2018-07-23T13:56:50.103Z,6.60
2018-07-23T14:01:57.240Z,7.67
2018-07-23T14:07:08.420Z,6.50
2018-07-23T14:12:12.417Z,6.58
2018-07-23T14:17:16.243Z,5.60
2018-07-23T14:22:21.226Z,7.00
2018-07-23T14:27:25.228Z,8.13
2018-07-23T14:32:29.103Z,7.12
2018-07-23T14:37:33.893Z,6.47
2018-07-23T14:42:37.938Z,6.62
2018-07-23T14:47:42.859Z,6.60
2018-07-23T14:52:46.284Z,6.28
2018-07-23T14:57:49.336Z,6.22
2018-07-23T15:02:54.664Z,6.20
2018-07-23T15:07:58.548Z,6.70
2018-07-23T15:13:01.606Z,6.53
2018-07-23T15:18:23.739Z,6.70
2018-07-23T15:23:27.345Z,6.60
2018-07-23T15:33:54.846Z,6.97
2018-07-23T15:38:59.078Z,6.20
2018-07-23T15:44:04.409Z,6.50
2018-07-23T15:49:08.452Z,6.13
2018-07-23T15:54:12.799Z,6.67
2018-07-23T16:00:19.471Z,6.45
2018-07-23T16:05:26.367Z,5.97
2018-07-23T16:10:29.721Z,6.47
2018-07-23T16:15:36.623Z,6.20
2018-07-23T16:20:39.880Z,6.40
2018-07-23T16:25:43.252Z,6.35
2018-07-23T16:30:47.515Z,6.63
2018-07-23T16:35:50.825Z,5.80
2018-07-23T16:40:54.083Z,5.60
2018-07-23T16:45:57.315Z,5.37
2018-07-23T16:51:00.590Z,5.58
2018-07-23T16:56:03.903Z,5.40
2018-07-23T17:01:08.139Z,6.03
2018-07-23T17:06:11.502Z,5.08
2018-07-23T17:11:14.862Z,4.97
2018-07-23T17:16:18.121Z,4.80
2018-07-23T17:21:21.444Z,5.10
2018-07-23T17:26:24.747Z,5.00
2018-07-23T17:31:34.287Z,4.70
2018-07-23T17:36:37.638Z,5.50
2018-07-23T17:41:41.143Z,5.05
2018-07-23T17:46:45.664Z,4.80
2018-07-23T17:51:48.927Z,4.80
2018-07-23T17:56:53.226Z,5.00
2018-07-23T18:01:58.727Z,5.00
2018-07-23T18:07:02.075Z,4.90
2018-07-23T18:12:05.560Z,4.60
2018-07-23T18:17:09.049Z,4.93
2018-07-23T18:22:12.964Z,4.70
2018-07-23T18:27:16.858Z,4.60
2018-07-23T18:32:20.624Z,5.72
2018-07-23T18:37:24.251Z,5.00
2018-07-23T18:42:27.514Z,5.00
2018-07-23T18:47:30.834Z,4.83
2018-07-23T18:52:34.210Z,5.60
2018-07-23T18:57:38.772Z,5.00
2018-07-23T19:02:42.628Z,5.60
2018-07-23T19:07:46.080Z,6.40
2018-07-23T19:12:51.593Z,5.40
2018-07-23T19:17:54.893Z,5.70
2018-07-23T19:22:58.903Z,5.20
2018-07-23T19:28:03.215Z,5.08
2018-07-23T19:33:07.193Z,5.20
2018-07-23T19:38:10.552Z,4.95
2018-07-23T19:43:13.572Z,6.20
2018-07-23T19:48:16.884Z,4.90
2018-07-23T19:53:20.258Z,5.60
2018-07-23T19:58:23.620Z,5.27
2018-07-23T20:03:33.572Z,5.50
2018-07-23T20:08:36.905Z,5.78
2018-07-23T20:13:40.380Z,5.65
2018-07-23T20:18:43.714Z,5.70
2018-07-23T20:23:47.059Z,5.83
2018-07-23T20:28:50.520Z,6.00
2018-07-23T20:33:53.824Z,5.42
2018-07-23T20:38:57.131Z,5.45
2018-07-23T20:44:00.371Z,5.60
2018-07-23T20:49:03.675Z,5.83
2018-07-23T20:54:06.978Z,6.08
2018-07-23T20:59:10.271Z,6.25
2018-07-23T21:04:13.650Z,7.30
2018-07-23T21:09:17.025Z,6.20
2018-07-23T21:14:20.395Z,5.92
2018-07-23T21:19:24.585Z,6.13
2018-07-23T21:24:28.773Z,6.50
2018-07-23T21:29:32.424Z,8.03
2018-07-23T21:34:39.226Z,7.37
2018-07-23T21:39:42.946Z,7.90
2018-07-23T21:44:46.777Z,7.50
2018-07-23T21:49:50.612Z,8.40
2018-07-23T21:54:54.419Z,7.97
2018-07-23T21:59:57.930Z,8.73
2018-07-23T22:05:01.743Z,8.28
2018-07-23T22:10:07.260Z,9.07
2018-07-23T22:15:11.480Z,9.00
2018-07-23T22:20:14.899Z,9.25
2018-07-23T22:25:18.304Z,7.60
2018-07-23T22:30:21.874Z,6.62
2018-07-23T22:35:25.424Z,6.70
2018-07-23T22:40:29.171Z,7.80
2018-07-23T22:45:32.419Z,8.28
2018-07-23T22:50:35.776Z,7.92
2018-07-23T22:55:39.334Z,7.40
2018-07-23T23:00:42.718Z,7.80
2018-07-23T23:05:46.074Z,8.10
2018-07-23T23:10:59.505Z,7.90
2018-07-23T23:17:06.251Z,8.80
2018-07-23T23:22:09.586Z,8.60
2018-07-23T23:27:12.830Z,9.10
2018-07-23T23:32:16.114Z,9.53
2018-07-23T23:37:19.529Z,8.45
2018-07-23T23:42:22.877Z,9.30
2018-07-23T23:47:26.151Z,9.78
2018-07-23T23:52:29.479Z,11.30
2018-07-23T23:57:33.326Z,11.38
